Aviation Digital Data Service (ADDS)

Output produced by METARs form (1041 UTC 17 June 2019)
found at http://www.aviationweather.gov/metar/data/
 
Forecast for: ZYCC (CHANGCHUN , CN)
Text: TAF ZYCC 170910Z 1712/1812 19003MPS CAVOK TX27/1806Z TN13/1721Z
Forecast period: 1200 UTC 17 June 2019 to 1200 UTC 18 June 2019
Forecast type: FROM: standard forecast or significant change
Winds: from the S (190 degrees) at 7 MPH (6 knots; 3.1 m/s)
Visibility: 6 or more miles 10+ km)
Ceiling: unknown
Clouds: missing
Weather: no significant weather forecast for this period